Cuneyt Solakoglu — TCTN4 — position and weather

sailwx.info

Track history (hours):
 
Tides and Currents Weather Stations Pressure Air Temp Water Temp Dewpoint Dewpoint Depression Visibility Wind Speed Wind Dir Waves Ship Positions

Cuneyt Solakoglu

Last reported at 2016-Sep-26 01:33 UTC. Time now 2016-Sep-28 01:44 UTC.
Position N 44°06' E 014°04'.

Length 193 m; draft 6.3 m.

Type: Cargo ship. MMSI: 271002676.

Date/timePositionNaut miles runAvg speedWind from/ knotsBaromVisibWave heightAir tempDewpointWater temp
2016-Sep-26 01:33N 44°06' E 014°04'2019.6
2016-Sep-26 00:34N 44°22' E 013°49'5919.8
2016-Sep-25 21:34N 45°12' E 013°04'39 9.7
2016-Sep-25 17:33N 45°39' E 013°45'0 0.0
2016-Sep-25 16:33N 45°39' E 013°45'0 0.0
2016-Sep-25 15:33N 45°39' E 013°45'0 0.0
2016-Sep-25 14:33N 45°39' E 013°45'0 0.0
2016-Sep-25 12:33N 45°39' E 013°45'0 0.0
2016-Sep-25 11:33N 45°39' E 013°45'0 0.0
2016-Sep-25 10:33N 45°39' E 013°45'0 0.0
2016-Sep-25 09:33N 45°39' E 013°45'2512.7
2016-Sep-25 07:33N 45°24' E 013°15'5618.7
2016-Sep-25 04:33N 44°33' E 013°46'62716.0
2016-Sep-23 13:27N 37°44' E 024°16'29617.5
2016-Sep-22 20:34N 40°51' E 029°13'3 0.3
2016-Sep-22 12:30N 40°51' E 029°16'0 0.0
2016-Sep-22 04:33N 40°51' E 029°16'0 0.0
2016-Sep-22 03:32N 40°51' E 029°16'0 0.0
2016-Sep-22 00:31N 40°51' E 029°16'0 0.0
2016-Sep-21 23:31N 40°51' E 029°16'0 0.0
2016-Sep-21 22:30N 40°51' E 029°16'0 0.0
2016-Sep-21 19:29N 40°51' E 029°16'0 0.0
2016-Sep-21 16:32N 40°51' E 029°16'0 0.0
2016-Sep-21 09:29N 40°51' E 029°16'0 0.0
2016-Sep-21 08:29N 40°51' E 029°16'0 0.0
2016-Sep-21 05:33N 40°51' E 029°16'0 0.0
2016-Sep-21 03:33N 40°51' E 029°16'0 0.0
2016-Sep-21 02:32N 40°51' E 029°16'0 0.0
2016-Sep-20 17:28N 40°51' E 029°16'0 0.0
2016-Sep-20 14:33N 40°51' E 029°16'0 0.0
2016-Sep-20 13:33N 40°51' E 029°16'0 0.0
2016-Sep-20 10:20N 40°51' E 029°16'0 0.0
2016-Sep-20 08:30N 40°51' E 029°16'0 0.0
2016-Sep-20 07:30N 40°51' E 029°16'0 0.0
2016-Sep-20 06:30N 40°51' E 029°16'0 0.0
2016-Sep-20 02:22N 40°51' E 029°16'0 0.0
2016-Sep-19 23:32N 40°51' E 029°16'0 0.0
2016-Sep-19 19:31N 40°51' E 029°16'0 0.0
2016-Sep-19 18:30N 40°51' E 029°16'0 0.0
2016-Sep-19 16:29N 40°51' E 029°16'0 0.0
2016-Sep-19 14:29N 40°51' E 029°16'0 0.0
2016-Sep-19 13:22N 40°51' E 029°16'0 0.2
2016-Sep-19 12:33N 40°51' E 029°16'5 4.7
2016-Sep-19 11:33N 40°50' E 029°10'14916.4
2016-Sep-19 02:25N 39°60' E 026°06'19918.3
2016-Sep-18 15:33N 37°07' E 023°58'1919.1
2016-Sep-18 14:33N 36°52' E 023°43'66017.4
2016-Sep-17 00:33N 44°42' E 013°31'57 8.1
2016-Sep-16 17:32N 45°39' E 013°45'0 0.0
2016-Sep-16 15:28N 45°39' E 013°45'0 0.0
2016-Sep-16 12:33N 45°39' E 013°45'0 0.0
2016-Sep-16 09:32N 45°39' E 013°45'0 0.0
2016-Sep-16 07:31N 45°39' E 013°45'0 0.0
2016-Sep-16 03:32N 45°39' E 013°45'0 0.0
2016-Sep-16 02:32N 45°39' E 013°45'  
Track history (hours):
 
Tides and Currents Weather Stations Pressure Air Temp Water Temp Dewpoint Dewpoint Depression Visibility Wind Speed Wind Dir Waves Ship Positions

Cuneyt Solakoglu

Last reported at 2016-Sep-26 01:33 UTC. Time now 2016-Sep-28 01:44 UTC.
Position N 44°06' E 014°04'.

Length 193 m; draft 6.3 m.

Type: Cargo ship. MMSI: 271002676.

Date/timePositionNaut miles runAvg speedWind from/ knotsBaromVisibWave heightAir tempDewpointWater temp
2016-Sep-26 01:33N 44°06' E 014°04'2019.6
2016-Sep-26 00:34N 44°22' E 013°49'5919.8
2016-Sep-25 21:34N 45°12' E 013°04'39 9.7
2016-Sep-25 17:33N 45°39' E 013°45'0 0.0
2016-Sep-25 16:33N 45°39' E 013°45'0 0.0
2016-Sep-25 15:33N 45°39' E 013°45'0 0.0
2016-Sep-25 14:33N 45°39' E 013°45'0 0.0
2016-Sep-25 12:33N 45°39' E 013°45'0 0.0
2016-Sep-25 11:33N 45°39' E 013°45'0 0.0
2016-Sep-25 10:33N 45°39' E 013°45'0 0.0
2016-Sep-25 09:33N 45°39' E 013°45'2512.7
2016-Sep-25 07:33N 45°24' E 013°15'5618.7
2016-Sep-25 04:33N 44°33' E 013°46'62716.0
2016-Sep-23 13:27N 37°44' E 024°16'29617.5
2016-Sep-22 20:34N 40°51' E 029°13'3 0.3
2016-Sep-22 12:30N 40°51' E 029°16'0 0.0
2016-Sep-22 04:33N 40°51' E 029°16'0 0.0
2016-Sep-22 03:32N 40°51' E 029°16'0 0.0
2016-Sep-22 00:31N 40°51' E 029°16'0 0.0
2016-Sep-21 23:31N 40°51' E 029°16'0 0.0
2016-Sep-21 22:30N 40°51' E 029°16'0 0.0
2016-Sep-21 19:29N 40°51' E 029°16'0 0.0
2016-Sep-21 16:32N 40°51' E 029°16'0 0.0
2016-Sep-21 09:29N 40°51' E 029°16'0 0.0
2016-Sep-21 08:29N 40°51' E 029°16'0 0.0
2016-Sep-21 05:33N 40°51' E 029°16'0 0.0
2016-Sep-21 03:33N 40°51' E 029°16'0 0.0
2016-Sep-21 02:32N 40°51' E 029°16'0 0.0
2016-Sep-20 17:28N 40°51' E 029°16'0 0.0
2016-Sep-20 14:33N 40°51' E 029°16'0 0.0
2016-Sep-20 13:33N 40°51' E 029°16'0 0.0
2016-Sep-20 10:20N 40°51' E 029°16'0 0.0
2016-Sep-20 08:30N 40°51' E 029°16'0 0.0
2016-Sep-20 07:30N 40°51' E 029°16'0 0.0
2016-Sep-20 06:30N 40°51' E 029°16'0 0.0
2016-Sep-20 02:22N 40°51' E 029°16'0 0.0
2016-Sep-19 23:32N 40°51' E 029°16'0 0.0
2016-Sep-19 19:31N 40°51' E 029°16'0 0.0
2016-Sep-19 18:30N 40°51' E 029°16'0 0.0
2016-Sep-19 16:29N 40°51' E 029°16'0 0.0
2016-Sep-19 14:29N 40°51' E 029°16'0 0.0
2016-Sep-19 13:22N 40°51' E 029°16'0 0.2
2016-Sep-19 12:33N 40°51' E 029°16'5 4.7
2016-Sep-19 11:33N 40°50' E 029°10'14916.4
2016-Sep-19 02:25N 39°60' E 026°06'19918.3
2016-Sep-18 15:33N 37°07' E 023°58'1919.1
2016-Sep-18 14:33N 36°52' E 023°43'66017.4
2016-Sep-17 00:33N 44°42' E 013°31'57 8.1
2016-Sep-16 17:32N 45°39' E 013°45'0 0.0
2016-Sep-16 15:28N 45°39' E 013°45'0 0.0
2016-Sep-16 12:33N 45°39' E 013°45'0 0.0
2016-Sep-16 09:32N 45°39' E 013°45'0 0.0
2016-Sep-16 07:31N 45°39' E 013°45'0 0.0
2016-Sep-16 03:32N 45°39' E 013°45'0 0.0
2016-Sep-16 02:32N 45°39' E 013°45'  

Dump ship's entire track history